Volga-4011 — UBNJ — position and weather

sailwx.info

Track history (hours):
 
Tides and Currents Weather Stations Pressure Air Temp Water Temp Dewpoint Dewpoint Depression Visibility Wind Speed Wind Dir Waves Ship Positions

Volga-4011

Last reported at 2015-Feb-17 12:33 UTC. Time now 2015-Mar-31 09:49 UTC.
Position N 31°02' E 122°20'.
Warning: this ship's position is 41 days out of date.

Length 140 m; draft 3.5 m.

Type: Cargo ship. MMSI: 273358200.

Date/timePositionNaut miles runAvg speedWind from/ knotsBaromVisibWave heightAir tempDewpointWater temp
2015-Feb-17 12:33N 31°02' E 122°20'7 7.1
2015-Feb-17 11:33N 31°02' E 122°11'8 7.6
2015-Feb-17 10:33N 31°04' E 122°03'1111.1
2015-Feb-17 09:33N 31°10' E 121°52'1313.1
2015-Feb-17 08:33N 31°20' E 121°41'1010.2
2015-Feb-17 07:34N 31°23' E 121°30'7 6.6
2015-Feb-17 06:33N 31°17' E 121°34'6 5.6
2015-Feb-17 05:33N 31°13' E 121°30'6 5.5
2015-Feb-17 04:33N 31°07' E 121°28'2 1.6
2015-Feb-17 03:33N 31°06' E 121°28'0 0.0
2015-Feb-17 02:31N 31°06' E 121°28'0 0.0
2015-Feb-17 01:26N 31°06' E 121°28'0 0.0
2015-Feb-17 00:32N 31°06' E 121°28'0 0.0
2015-Feb-16 23:33N 31°06' E 121°28'0 0.0
2015-Feb-16 22:33N 31°06' E 121°28'0 0.0
2015-Feb-16 21:31N 31°06' E 121°28'0 0.0
2015-Feb-16 20:32N 31°06' E 121°28'0 0.0
2015-Feb-16 19:32N 31°06' E 121°28'0 0.0
2015-Feb-16 18:33N 31°06' E 121°28'0 0.0
2015-Feb-16 17:31N 31°06' E 121°28'0 0.0
2015-Feb-16 16:31N 31°06' E 121°28'0 0.0
2015-Feb-16 15:32N 31°06' E 121°28'0 0.0
2015-Feb-16 14:33N 31°06' E 121°28'0 0.0
2015-Feb-16 13:33N 31°06' E 121°28'0 0.0
2015-Feb-16 12:31N 31°06' E 121°28'0 0.0
2015-Feb-16 11:32N 31°06' E 121°28'0 0.0
2015-Feb-16 10:32N 31°06' E 121°28'0 0.0
2015-Feb-16 09:33N 31°06' E 121°28'0 0.0
2015-Feb-16 08:31N 31°06' E 121°28'0 0.0
2015-Feb-16 07:31N 31°06' E 121°28'0 0.0
2015-Feb-16 06:26N 31°06' E 121°28'0 0.1
2015-Feb-16 05:33N 31°06' E 121°28'6 5.6
2015-Feb-16 04:33N 31°12' E 121°29'5 5.5
2015-Feb-16 03:33N 31°16' E 121°33'6 5.7
2015-Feb-16 02:33N 31°21' E 121°31'4 4.1
2015-Feb-16 01:33N 31°24' E 121°34'0 0.1
2015-Feb-16 00:31N 31°24' E 121°34'0 0.2
2015-Feb-15 23:29N 31°24' E 121°34'0 0.0
2015-Feb-15 22:33N 31°24' E 121°34'0 0.0
2015-Feb-15 21:30N 31°24' E 121°34'0 0.0
2015-Feb-15 20:31N 31°24' E 121°34'0 0.0
2015-Feb-15 19:29N 31°24' E 121°34'0 0.0
2015-Feb-15 18:32N 31°24' E 121°34'0 0.0
2015-Feb-15 17:33N 31°24' E 121°34'0 0.0
2015-Feb-15 16:33N 31°24' E 121°34'0 0.1
2015-Feb-15 15:31N 31°24' E 121°34'0 0.1
2015-Feb-15 14:32N 31°24' E 121°34'0 0.0
2015-Feb-15 13:29N 31°24' E 121°34'0 0.0
2015-Feb-15 12:33N 31°24' E 121°34'0 0.0
2015-Feb-15 11:31N 31°24' E 121°34'0 0.1
2015-Feb-15 10:31N 31°24' E 121°34'0 0.0
2015-Feb-15 09:32N 31°24' E 121°34'0 0.0
2015-Feb-15 08:33N 31°24' E 121°34'0 0.0
2015-Feb-15 07:33N 31°24' E 121°34'0 0.0
2015-Feb-15 06:31N 31°24' E 121°34'0 0.0
2015-Feb-15 05:28N 31°24' E 121°34'0 0.0
2015-Feb-15 04:32N 31°24' E 121°34'0 0.1
2015-Feb-15 03:33N 31°24' E 121°34'0 0.0
2015-Feb-15 02:30N 31°24' E 121°34'0 0.0
2015-Feb-15 01:28N 31°24' E 121°34'0 0.0
2015-Feb-15 00:32N 31°24' E 121°34'0 0.0
2015-Feb-14 23:26N 31°24' E 121°34'0 0.0
2015-Feb-14 22:33N 31°24' E 121°34'0 0.1
2015-Feb-14 21:33N 31°24' E 121°34'0 0.1
2015-Feb-14 20:30N 31°24' E 121°34'0 0.0
2015-Feb-14 19:32N 31°24' E 121°34'0 0.0
2015-Feb-14 18:33N 31°24' E 121°34'0 0.0
2015-Feb-14 17:33N 31°24' E 121°34'0 0.0
2015-Feb-14 16:31N 31°24' E 121°34'0 0.1
2015-Feb-14 15:29N 31°24' E 121°34'0 0.1
2015-Feb-14 14:32N 31°24' E 121°34'0 0.0
2015-Feb-14 13:33N 31°24' E 121°34'0 0.0
2015-Feb-14 12:33N 31°24' E 121°34'0 0.0
2015-Feb-14 11:31N 31°24' E 121°34'0 0.0
2015-Feb-14 10:32N 31°24' E 121°34'0 0.0
2015-Feb-14 09:32N 31°24' E 121°34'0 0.1
2015-Feb-14 08:30N 31°24' E 121°34'0 0.0
2015-Feb-14 07:30N 31°24' E 121°34'0 0.0
2015-Feb-14 06:31N 31°24' E 121°34'0 0.0
2015-Feb-14 05:32N 31°24' E 121°34'0 0.1
2015-Feb-14 04:29N 31°24' E 121°34'0 0.1
2015-Feb-14 03:30N 31°24' E 121°34'0 0.0
2015-Feb-14 02:33N 31°24' E 121°34'0 0.0
2015-Feb-14 01:28N 31°24' E 121°34'0 0.0
2015-Feb-14 00:32N 31°24' E 121°34'0 0.0
2015-Feb-13 23:29N 31°24' E 121°34'0 0.0
2015-Feb-13 22:33N 31°24' E 121°34'0 0.0
2015-Feb-13 21:28N 31°24' E 121°34'0 0.0
2015-Feb-13 20:31N 31°24' E 121°34'0 0.0
2015-Feb-13 19:32N 31°24' E 121°34'0 0.1
2015-Feb-13 18:33N 31°24' E 121°34'0 0.0
2015-Feb-13 17:24N 31°24' E 121°34'0 0.0
2015-Feb-13 16:31N 31°24' E 121°34'0 0.0
2015-Feb-13 15:31N 31°24' E 121°34'0 0.1
2015-Feb-13 14:32N 31°24' E 121°34'0 0.1
2015-Feb-13 13:27N 31°24' E 121°34'0 0.0
2015-Feb-13 12:33N 31°24' E 121°34'0 0.1
2015-Feb-13 11:31N 31°24' E 121°34'0 0.0
2015-Feb-13 10:28N 31°24' E 121°34'0 0.0
2015-Feb-13 09:32N 31°24' E 121°34'0 0.0
2015-Feb-13 08:30N 31°24' E 121°34'0 0.0
2015-Feb-13 07:30N 31°24' E 121°34'0 0.1
2015-Feb-13 06:31N 31°24' E 121°34'0 0.1
2015-Feb-13 05:32N 31°24' E 121°34'0 0.0
2015-Feb-13 04:32N 31°24' E 121°34'0 0.0
2015-Feb-13 03:33N 31°24' E 121°34'0 0.1
2015-Feb-13 02:33N 31°24' E 121°34'0 0.0
2015-Feb-13 01:31N 31°24' E 121°34'0 0.1
2015-Feb-13 00:32N 31°24' E 121°34'0 0.0
2015-Feb-12 23:32N 31°24' E 121°34'0 0.0
2015-Feb-12 22:33N 31°24' E 121°34'0 0.0
2015-Feb-12 21:31N 31°24' E 121°34'0 0.0
2015-Feb-12 20:32N 31°24' E 121°34'0 0.0
2015-Feb-12 19:33N 31°24' E 121°34'0 0.0
2015-Feb-12 18:33N 31°24' E 121°34'0 0.2
2015-Feb-12 17:31N 31°24' E 121°34'0 0.0
2015-Feb-12 16:29N 31°24' E 121°34'0 0.0
2015-Feb-12 15:32N 31°24' E 121°34'0 0.0
2015-Feb-12 14:33N 31°24' E 121°34'0 0.0
2015-Feb-12 13:33N 31°24' E 121°34'0 0.1
2015-Feb-12 12:31N 31°24' E 121°34'0 0.1
2015-Feb-12 11:32N 31°24' E 121°34'0 0.0
2015-Feb-12 10:29N 31°24' E 121°34'0 0.0
2015-Feb-12 09:33N 31°24' E 121°34'0 0.1
2015-Feb-12 08:33N 31°24' E 121°34'0 0.0
2015-Feb-12 07:33N 31°24' E 121°34'0 0.0
2015-Feb-12 06:33N 31°24' E 121°34'0 0.1
2015-Feb-12 05:28N 31°24' E 121°34'0 0.0
2015-Feb-12 04:32N 31°24' E 121°34'0 0.0
2015-Feb-12 03:32N 31°24' E 121°34'0 0.0
2015-Feb-12 02:33N 31°24' E 121°34'0 0.0
2015-Feb-12 01:33N 31°24' E 121°34'0 0.0
2015-Feb-12 00:31N 31°24' E 121°34'0 0.0
2015-Feb-11 23:32N 31°24' E 121°34'0 0.1
2015-Feb-11 22:20N 31°24' E 121°34'0 0.0
2015-Feb-11 21:33N 31°24' E 121°34'0 0.1
2015-Feb-11 20:33N 31°24' E 121°34'0 0.0
2015-Feb-11 19:31N 31°24' E 121°34'0 0.1
2015-Feb-11 18:32N 31°24' E 121°34'0 0.0
2015-Feb-11 17:29N 31°24' E 121°34'0 0.0
2015-Feb-11 16:33N 31°24' E 121°34'0 0.0
2015-Feb-11 15:34N 31°24' E 121°34'0 0.0
2015-Feb-11 14:31N 31°24' E 121°34'0 0.0
2015-Feb-11 13:29N 31°24' E 121°34'0 0.0
2015-Feb-11 12:32N 31°24' E 121°34'0 0.0
2015-Feb-11 11:33N 31°24' E 121°34'0 0.1
2015-Feb-11 10:33N 31°24' E 121°34'0 0.1
2015-Feb-11 09:31N 31°24' E 121°34'0 0.0
2015-Feb-11 08:32N 31°24' E 121°34'0 0.0
2015-Feb-11 07:23N 31°24' E 121°34'0 0.1
2015-Feb-11 06:31N 31°24' E 121°34'0 0.1
2015-Feb-11 05:32N 31°24' E 121°34'0 0.0
2015-Feb-11 04:32N 31°24' E 121°34'0 0.0
2015-Feb-11 03:33N 31°24' E 121°34'0 0.0
2015-Feb-11 02:31N 31°24' E 121°34'0 0.0
2015-Feb-11 01:31N 31°24' E 121°34'0 0.0
2015-Feb-11 00:32N 31°24' E 121°34'0 0.0
2015-Feb-10 23:33N 31°24' E 121°34'0 0.1
2015-Feb-10 22:30N 31°24' E 121°34'0 0.0
2015-Feb-10 21:31N 31°24' E 121°34'0 0.1
2015-Feb-10 20:32N 31°24' E 121°34'0 0.0
2015-Feb-10 19:32N 31°24' E 121°34'0 0.1
2015-Feb-10 18:33N 31°24' E 121°34'0 0.0
2015-Feb-10 17:33N 31°24' E 121°34'0 0.1
2015-Feb-10 16:33N 31°24' E 121°34'0 0.1
2015-Feb-10 15:33N 31°24' E 121°34'4 4.5
2015-Feb-10 14:33N 31°26' E 121°29'1110.9
2015-Feb-10 13:34N 31°33' E 121°19'1111.2
2015-Feb-10 12:33N 31°41' E 121°10'1010.0
2015-Feb-10 11:33N 31°47' E 121°00'8 7.9
2015-Feb-10 10:33N 31°52' E 120°53'8 8.0
2015-Feb-10 09:33N 31°59' E 120°50'8 8.4
2015-Feb-10 08:33N 31°60' E 120°40'10 9.8
2015-Feb-10 07:32N 32°04' E 120°29'1111.0
2015-Feb-10 06:33N 31°58' E 120°19'1110.8
2015-Feb-10 05:33N 31°57' E 120°06'1111.0
2015-Feb-10 04:32N 32°03' E 119°56'  
Track history (hours):
 
Tides and Currents Weather Stations Pressure Air Temp Water Temp Dewpoint Dewpoint Depression Visibility Wind Speed Wind Dir Waves Ship Positions

Volga-4011

Last reported at 2015-Feb-17 12:33 UTC. Time now 2015-Mar-31 09:49 UTC.
Position N 31°02' E 122°20'.
Warning: this ship's position is 41 days out of date.

Length 140 m; draft 3.5 m.

Type: Cargo ship. MMSI: 273358200.

Date/timePositionNaut miles runAvg speedWind from/ knotsBaromVisibWave heightAir tempDewpointWater temp
2015-Feb-17 12:33N 31°02' E 122°20'7 7.1
2015-Feb-17 11:33N 31°02' E 122°11'8 7.6
2015-Feb-17 10:33N 31°04' E 122°03'1111.1
2015-Feb-17 09:33N 31°10' E 121°52'1313.1
2015-Feb-17 08:33N 31°20' E 121°41'1010.2
2015-Feb-17 07:34N 31°23' E 121°30'7 6.6
2015-Feb-17 06:33N 31°17' E 121°34'6 5.6
2015-Feb-17 05:33N 31°13' E 121°30'6 5.5
2015-Feb-17 04:33N 31°07' E 121°28'2 1.6
2015-Feb-17 03:33N 31°06' E 121°28'0 0.0
2015-Feb-17 02:31N 31°06' E 121°28'0 0.0
2015-Feb-17 01:26N 31°06' E 121°28'0 0.0
2015-Feb-17 00:32N 31°06' E 121°28'0 0.0
2015-Feb-16 23:33N 31°06' E 121°28'0 0.0
2015-Feb-16 22:33N 31°06' E 121°28'0 0.0
2015-Feb-16 21:31N 31°06' E 121°28'0 0.0
2015-Feb-16 20:32N 31°06' E 121°28'0 0.0
2015-Feb-16 19:32N 31°06' E 121°28'0 0.0
2015-Feb-16 18:33N 31°06' E 121°28'0 0.0
2015-Feb-16 17:31N 31°06' E 121°28'0 0.0
2015-Feb-16 16:31N 31°06' E 121°28'0 0.0
2015-Feb-16 15:32N 31°06' E 121°28'0 0.0
2015-Feb-16 14:33N 31°06' E 121°28'0 0.0
2015-Feb-16 13:33N 31°06' E 121°28'0 0.0
2015-Feb-16 12:31N 31°06' E 121°28'0 0.0
2015-Feb-16 11:32N 31°06' E 121°28'0 0.0
2015-Feb-16 10:32N 31°06' E 121°28'0 0.0
2015-Feb-16 09:33N 31°06' E 121°28'0 0.0
2015-Feb-16 08:31N 31°06' E 121°28'0 0.0
2015-Feb-16 07:31N 31°06' E 121°28'0 0.0
2015-Feb-16 06:26N 31°06' E 121°28'0 0.1
2015-Feb-16 05:33N 31°06' E 121°28'6 5.6
2015-Feb-16 04:33N 31°12' E 121°29'5 5.5
2015-Feb-16 03:33N 31°16' E 121°33'6 5.7
2015-Feb-16 02:33N 31°21' E 121°31'4 4.1
2015-Feb-16 01:33N 31°24' E 121°34'0 0.1
2015-Feb-16 00:31N 31°24' E 121°34'0 0.2
2015-Feb-15 23:29N 31°24' E 121°34'0 0.0
2015-Feb-15 22:33N 31°24' E 121°34'0 0.0
2015-Feb-15 21:30N 31°24' E 121°34'0 0.0
2015-Feb-15 20:31N 31°24' E 121°34'0 0.0
2015-Feb-15 19:29N 31°24' E 121°34'0 0.0
2015-Feb-15 18:32N 31°24' E 121°34'0 0.0
2015-Feb-15 17:33N 31°24' E 121°34'0 0.0
2015-Feb-15 16:33N 31°24' E 121°34'0 0.1
2015-Feb-15 15:31N 31°24' E 121°34'0 0.1
2015-Feb-15 14:32N 31°24' E 121°34'0 0.0
2015-Feb-15 13:29N 31°24' E 121°34'0 0.0
2015-Feb-15 12:33N 31°24' E 121°34'0 0.0
2015-Feb-15 11:31N 31°24' E 121°34'0 0.1
2015-Feb-15 10:31N 31°24' E 121°34'0 0.0
2015-Feb-15 09:32N 31°24' E 121°34'0 0.0
2015-Feb-15 08:33N 31°24' E 121°34'0 0.0
2015-Feb-15 07:33N 31°24' E 121°34'0 0.0
2015-Feb-15 06:31N 31°24' E 121°34'0 0.0
2015-Feb-15 05:28N 31°24' E 121°34'0 0.0
2015-Feb-15 04:32N 31°24' E 121°34'0 0.1
2015-Feb-15 03:33N 31°24' E 121°34'0 0.0
2015-Feb-15 02:30N 31°24' E 121°34'0 0.0
2015-Feb-15 01:28N 31°24' E 121°34'0 0.0
2015-Feb-15 00:32N 31°24' E 121°34'0 0.0
2015-Feb-14 23:26N 31°24' E 121°34'0 0.0
2015-Feb-14 22:33N 31°24' E 121°34'0 0.1
2015-Feb-14 21:33N 31°24' E 121°34'0 0.1
2015-Feb-14 20:30N 31°24' E 121°34'0 0.0
2015-Feb-14 19:32N 31°24' E 121°34'0 0.0
2015-Feb-14 18:33N 31°24' E 121°34'0 0.0
2015-Feb-14 17:33N 31°24' E 121°34'0 0.0
2015-Feb-14 16:31N 31°24' E 121°34'0 0.1
2015-Feb-14 15:29N 31°24' E 121°34'0 0.1
2015-Feb-14 14:32N 31°24' E 121°34'0 0.0
2015-Feb-14 13:33N 31°24' E 121°34'0 0.0
2015-Feb-14 12:33N 31°24' E 121°34'0 0.0
2015-Feb-14 11:31N 31°24' E 121°34'0 0.0
2015-Feb-14 10:32N 31°24' E 121°34'0 0.0
2015-Feb-14 09:32N 31°24' E 121°34'0 0.1
2015-Feb-14 08:30N 31°24' E 121°34'0 0.0
2015-Feb-14 07:30N 31°24' E 121°34'0 0.0
2015-Feb-14 06:31N 31°24' E 121°34'0 0.0
2015-Feb-14 05:32N 31°24' E 121°34'0 0.1
2015-Feb-14 04:29N 31°24' E 121°34'0 0.1
2015-Feb-14 03:30N 31°24' E 121°34'0 0.0
2015-Feb-14 02:33N 31°24' E 121°34'0 0.0
2015-Feb-14 01:28N 31°24' E 121°34'0 0.0
2015-Feb-14 00:32N 31°24' E 121°34'0 0.0
2015-Feb-13 23:29N 31°24' E 121°34'0 0.0
2015-Feb-13 22:33N 31°24' E 121°34'0 0.0
2015-Feb-13 21:28N 31°24' E 121°34'0 0.0
2015-Feb-13 20:31N 31°24' E 121°34'0 0.0
2015-Feb-13 19:32N 31°24' E 121°34'0 0.1
2015-Feb-13 18:33N 31°24' E 121°34'0 0.0
2015-Feb-13 17:24N 31°24' E 121°34'0 0.0
2015-Feb-13 16:31N 31°24' E 121°34'0 0.0
2015-Feb-13 15:31N 31°24' E 121°34'0 0.1
2015-Feb-13 14:32N 31°24' E 121°34'0 0.1
2015-Feb-13 13:27N 31°24' E 121°34'0 0.0
2015-Feb-13 12:33N 31°24' E 121°34'0 0.1
2015-Feb-13 11:31N 31°24' E 121°34'0 0.0
2015-Feb-13 10:28N 31°24' E 121°34'0 0.0
2015-Feb-13 09:32N 31°24' E 121°34'0 0.0
2015-Feb-13 08:30N 31°24' E 121°34'0 0.0
2015-Feb-13 07:30N 31°24' E 121°34'0 0.1
2015-Feb-13 06:31N 31°24' E 121°34'0 0.1
2015-Feb-13 05:32N 31°24' E 121°34'0 0.0
2015-Feb-13 04:32N 31°24' E 121°34'0 0.0
2015-Feb-13 03:33N 31°24' E 121°34'0 0.1
2015-Feb-13 02:33N 31°24' E 121°34'0 0.0
2015-Feb-13 01:31N 31°24' E 121°34'0 0.1
2015-Feb-13 00:32N 31°24' E 121°34'0 0.0
2015-Feb-12 23:32N 31°24' E 121°34'0 0.0
2015-Feb-12 22:33N 31°24' E 121°34'0 0.0
2015-Feb-12 21:31N 31°24' E 121°34'0 0.0
2015-Feb-12 20:32N 31°24' E 121°34'0 0.0
2015-Feb-12 19:33N 31°24' E 121°34'0 0.0
2015-Feb-12 18:33N 31°24' E 121°34'0 0.2
2015-Feb-12 17:31N 31°24' E 121°34'0 0.0
2015-Feb-12 16:29N 31°24' E 121°34'0 0.0
2015-Feb-12 15:32N 31°24' E 121°34'0 0.0
2015-Feb-12 14:33N 31°24' E 121°34'0 0.0
2015-Feb-12 13:33N 31°24' E 121°34'0 0.1
2015-Feb-12 12:31N 31°24' E 121°34'0 0.1
2015-Feb-12 11:32N 31°24' E 121°34'0 0.0
2015-Feb-12 10:29N 31°24' E 121°34'0 0.0
2015-Feb-12 09:33N 31°24' E 121°34'0 0.1
2015-Feb-12 08:33N 31°24' E 121°34'0 0.0
2015-Feb-12 07:33N 31°24' E 121°34'0 0.0
2015-Feb-12 06:33N 31°24' E 121°34'0 0.1
2015-Feb-12 05:28N 31°24' E 121°34'0 0.0
2015-Feb-12 04:32N 31°24' E 121°34'0 0.0
2015-Feb-12 03:32N 31°24' E 121°34'0 0.0
2015-Feb-12 02:33N 31°24' E 121°34'0 0.0
2015-Feb-12 01:33N 31°24' E 121°34'0 0.0
2015-Feb-12 00:31N 31°24' E 121°34'0 0.0
2015-Feb-11 23:32N 31°24' E 121°34'0 0.1
2015-Feb-11 22:20N 31°24' E 121°34'0 0.0
2015-Feb-11 21:33N 31°24' E 121°34'0 0.1
2015-Feb-11 20:33N 31°24' E 121°34'0 0.0
2015-Feb-11 19:31N 31°24' E 121°34'0 0.1
2015-Feb-11 18:32N 31°24' E 121°34'0 0.0
2015-Feb-11 17:29N 31°24' E 121°34'0 0.0
2015-Feb-11 16:33N 31°24' E 121°34'0 0.0
2015-Feb-11 15:34N 31°24' E 121°34'0 0.0
2015-Feb-11 14:31N 31°24' E 121°34'0 0.0
2015-Feb-11 13:29N 31°24' E 121°34'0 0.0
2015-Feb-11 12:32N 31°24' E 121°34'0 0.0
2015-Feb-11 11:33N 31°24' E 121°34'0 0.1
2015-Feb-11 10:33N 31°24' E 121°34'0 0.1
2015-Feb-11 09:31N 31°24' E 121°34'0 0.0
2015-Feb-11 08:32N 31°24' E 121°34'0 0.0
2015-Feb-11 07:23N 31°24' E 121°34'0 0.1
2015-Feb-11 06:31N 31°24' E 121°34'0 0.1
2015-Feb-11 05:32N 31°24' E 121°34'0 0.0
2015-Feb-11 04:32N 31°24' E 121°34'0 0.0
2015-Feb-11 03:33N 31°24' E 121°34'0 0.0
2015-Feb-11 02:31N 31°24' E 121°34'0 0.0
2015-Feb-11 01:31N 31°24' E 121°34'0 0.0
2015-Feb-11 00:32N 31°24' E 121°34'0 0.0
2015-Feb-10 23:33N 31°24' E 121°34'0 0.1
2015-Feb-10 22:30N 31°24' E 121°34'0 0.0
2015-Feb-10 21:31N 31°24' E 121°34'0 0.1
2015-Feb-10 20:32N 31°24' E 121°34'0 0.0
2015-Feb-10 19:32N 31°24' E 121°34'0 0.1
2015-Feb-10 18:33N 31°24' E 121°34'0 0.0
2015-Feb-10 17:33N 31°24' E 121°34'0 0.1
2015-Feb-10 16:33N 31°24' E 121°34'0 0.1
2015-Feb-10 15:33N 31°24' E 121°34'4 4.5
2015-Feb-10 14:33N 31°26' E 121°29'1110.9
2015-Feb-10 13:34N 31°33' E 121°19'1111.2
2015-Feb-10 12:33N 31°41' E 121°10'1010.0
2015-Feb-10 11:33N 31°47' E 121°00'8 7.9
2015-Feb-10 10:33N 31°52' E 120°53'8 8.0
2015-Feb-10 09:33N 31°59' E 120°50'8 8.4
2015-Feb-10 08:33N 31°60' E 120°40'10 9.8
2015-Feb-10 07:32N 32°04' E 120°29'1111.0
2015-Feb-10 06:33N 31°58' E 120°19'1110.8
2015-Feb-10 05:33N 31°57' E 120°06'1111.0
2015-Feb-10 04:32N 32°03' E 119°56'  

Dump ship's entire track history